createdAt,value
2024-04-18T00:00:11.784Z,1384.00
2024-04-18T00:01:11.967Z,1381.00
2024-04-18T00:02:11.907Z,1387.00
2024-04-18T00:03:12.016Z,1389.00
2024-04-18T00:04:12.128Z,1383.00
2024-04-18T00:05:12.276Z,1387.00
2024-04-18T00:06:12.154Z,1397.00
2024-04-18T00:07:12.222Z,1384.00
2024-04-18T00:08:12.251Z,1374.00
2024-04-18T00:09:12.323Z,1381.00
2024-04-18T00:10:12.375Z,1385.00
2024-04-18T00:11:12.464Z,1385.00
2024-04-18T00:12:12.604Z,1389.00
2024-04-18T00:13:12.589Z,1387.00
2024-04-18T00:14:12.615Z,1382.00
2024-04-18T00:15:12.720Z,1402.00
2024-04-18T00:16:12.773Z,1388.00
2024-04-18T00:17:12.853Z,1382.00
2024-04-18T00:18:12.912Z,1394.00
2024-04-18T00:19:12.901Z,1393.00
2024-04-18T00:20:12.992Z,1382.00
2024-04-18T00:21:13.069Z,1387.00
2024-04-18T00:22:13.135Z,1395.00
2024-04-18T00:23:13.141Z,1380.00
2024-04-18T00:24:13.237Z,1385.00
2024-04-18T00:25:13.288Z,1386.00
2024-04-18T00:26:13.293Z,1390.00
2024-04-18T00:27:13.452Z,1395.00
2024-04-18T00:28:13.486Z,1383.00
2024-04-18T00:29:13.526Z,1389.00
2024-04-18T00:30:13.599Z,1383.00
2024-04-18T00:31:13.643Z,1371.00
2024-04-18T00:32:13.756Z,1378.00
2024-04-18T00:33:13.775Z,1375.00
2024-04-18T00:34:13.847Z,1381.00
2024-04-18T00:35:13.877Z,1373.00
2024-04-18T00:36:13.995Z,1379.00
2024-04-18T00:37:14.077Z,1376.00
2024-04-18T00:38:14.168Z,1378.00
2024-04-18T00:39:14.180Z,1378.00
2024-04-18T00:40:14.231Z,1377.00
2024-04-18T00:41:14.294Z,1388.00
2024-04-18T00:42:14.443Z,1375.00
2024-04-18T00:43:14.442Z,1369.00
2024-04-18T00:44:14.476Z,1379.00
2024-04-18T00:45:14.577Z,1383.00
2024-04-18T00:46:14.637Z,1379.00
2024-04-18T00:47:14.663Z,1377.00
2024-04-18T00:48:14.915Z,1366.00
2024-04-18T00:49:14.808Z,1391.00
2024-04-18T00:50:14.821Z,1383.00
2024-04-18T00:51:14.897Z,1378.00
2024-04-18T00:52:15.080Z,1391.00
2024-04-18T00:53:15.054Z,1386.00
2024-04-18T00:54:15.129Z,1379.00
2024-04-18T00:55:16.007Z,1384.00
2024-04-18T00:56:18.138Z,1383.00
2024-04-18T00:57:15.239Z,1382.00
2024-04-18T00:58:15.185Z,1386.00
2024-04-18T00:59:15.220Z,1384.00
2024-04-18T01:00:15.191Z,1373.00
2024-04-18T01:01:15.283Z,1378.00
2024-04-18T01:02:15.208Z,1382.00
2024-04-18T01:03:15.280Z,1389.00
2024-04-18T01:04:15.528Z,1386.00
2024-04-18T01:05:15.255Z,1394.00
2024-04-18T01:06:15.222Z,1388.00
2024-04-18T01:07:15.251Z,1388.00
2024-04-18T01:08:15.305Z,1389.00
2024-04-18T01:09:15.241Z,1384.00
2024-04-18T01:10:15.213Z,1393.00
2024-04-18T01:11:15.244Z,1396.00
2024-04-18T01:12:15.233Z,1390.00
2024-04-18T01:13:15.199Z,1387.00
2024-04-18T01:14:15.242Z,1383.00
2024-04-18T01:15:15.285Z,1381.00
2024-04-18T01:16:15.214Z,1381.00
2024-04-18T01:17:15.251Z,1385.00
2024-04-18T01:18:15.401Z,1385.00
2024-04-18T01:19:15.268Z,1385.00
2024-04-18T01:20:15.222Z,1383.00
2024-04-18T01:21:15.266Z,1388.00
2024-04-18T01:22:15.243Z,1382.00
2024-04-18T01:23:15.227Z,1374.00
2024-04-18T01:24:15.250Z,1396.00
2024-04-18T01:25:15.275Z,1386.00
2024-04-18T01:26:15.215Z,1384.00
2024-04-18T01:27:15.267Z,1379.00
2024-04-18T01:28:15.232Z,1381.00
2024-04-18T01:29:15.246Z,1384.00
2024-04-18T01:30:15.264Z,1388.00
2024-04-18T01:31:15.230Z,1378.00
2024-04-18T01:32:15.241Z,1378.00
2024-04-18T01:33:15.439Z,1372.00
2024-04-18T01:34:15.488Z,1367.00
2024-04-18T01:35:15.444Z,1377.00
2024-04-18T01:36:15.524Z,1378.00
2024-04-18T01:37:15.579Z,1374.00
2024-04-18T01:38:15.620Z,1372.00
2024-04-18T01:39:15.698Z,1376.00
2024-04-18T01:40:15.768Z,1375.00
2024-04-18T01:41:15.789Z,1377.00
2024-04-18T01:42:15.912Z,1379.00
2024-04-18T01:43:15.925Z,1374.00
2024-04-18T01:44:16.081Z,1367.00
2024-04-18T01:45:16.114Z,1378.00
2024-04-18T01:46:16.134Z,1378.00
2024-04-18T01:47:16.232Z,1373.00
2024-04-18T01:48:16.364Z,1373.00
2024-04-18T01:49:16.406Z,1377.00
2024-04-18T01:50:16.501Z,1373.00
2024-04-18T01:51:16.533Z,1376.00
2024-04-18T01:52:16.573Z,1369.00
2024-04-18T01:53:16.586Z,1368.00
2024-04-18T01:54:16.726Z,1368.00
2024-04-18T01:55:16.733Z,1368.00
2024-04-18T01:56:16.800Z,1375.00
2024-04-18T01:57:16.875Z,1374.00
2024-04-18T01:58:16.932Z,1369.00
2024-04-18T01:59:17.641Z,1381.00
2024-04-18T02:00:17.081Z,1372.00
2024-04-18T02:01:17.209Z,1373.00
2024-04-18T02:02:17.201Z,1375.00
2024-04-18T02:03:17.316Z,1373.00
2024-04-18T02:04:17.411Z,1365.00
2024-04-18T02:05:17.345Z,1369.00
2024-04-18T02:06:17.453Z,1373.00
2024-04-18T02:07:17.508Z,1373.00
2024-04-18T02:08:17.571Z,1374.00
2024-04-18T02:09:17.673Z,1364.00
2024-04-18T02:10:17.689Z,1373.00
2024-04-18T02:11:17.801Z,1372.00
2024-04-18T02:12:17.874Z,1368.00
2024-04-18T02:13:17.894Z,1377.00
2024-04-18T02:14:17.979Z,1382.00
2024-04-18T02:15:18.044Z,1375.00
2024-04-18T02:16:18.101Z,1371.00
2024-04-18T02:17:18.176Z,1379.00
2024-04-18T02:18:18.277Z,1365.00
2024-04-18T02:19:18.307Z,1368.00
2024-04-18T02:20:18.352Z,1381.00
2024-04-18T02:21:18.439Z,1364.00
2024-04-18T02:22:18.478Z,1373.00
2024-04-18T02:23:18.528Z,1376.00
2024-04-18T02:24:18.576Z,1373.00
2024-04-18T02:25:18.691Z,1377.00
2024-04-18T02:26:18.792Z,1368.00
2024-04-18T02:27:18.785Z,1378.00
2024-04-18T02:28:18.878Z,1369.00
2024-04-18T02:29:18.906Z,1373.00
2024-04-18T02:30:19.104Z,1362.00
2024-04-18T02:31:19.023Z,1372.00
2024-04-18T02:32:19.189Z,1367.00
2024-04-18T02:33:19.217Z,1367.00
2024-04-18T02:34:19.224Z,1374.00
2024-04-18T02:35:19.309Z,1370.00
2024-04-18T02:36:19.434Z,1366.00
2024-04-18T02:37:19.396Z,1363.00
2024-04-18T02:38:19.491Z,1343.00
2024-04-18T02:39:19.573Z,1365.00
2024-04-18T02:40:19.664Z,1368.00
2024-04-18T02:41:19.669Z,1359.00
2024-04-18T02:42:19.734Z,1364.00
2024-04-18T02:43:19.843Z,1364.00
2024-04-18T02:44:19.900Z,1363.00
2024-04-18T02:45:19.958Z,1357.00
2024-04-18T02:46:19.991Z,1367.00
2024-04-18T02:47:20.071Z,1354.00
2024-04-18T02:48:20.192Z,1355.00
2024-04-18T02:49:20.208Z,1363.00
2024-04-18T02:50:20.282Z,1363.00
2024-04-18T02:51:20.288Z,1350.00
2024-04-18T02:52:20.403Z,1355.00
2024-04-18T02:53:20.483Z,1348.00
2024-04-18T02:54:20.536Z,1359.00
2024-04-18T02:55:20.558Z,1359.00
2024-04-18T02:56:20.645Z,1348.00
2024-04-18T02:57:20.764Z,1354.00
2024-04-18T02:58:20.772Z,1357.00
2024-04-18T02:59:20.822Z,1356.00
2024-04-18T03:00:20.924Z,1359.00
2024-04-18T03:01:20.981Z,1359.00
2024-04-18T03:02:21.017Z,1355.00
2024-04-18T03:03:21.112Z,1364.00
2024-04-18T03:04:21.200Z,1346.00
2024-04-18T03:05:21.213Z,1349.00
2024-04-18T03:06:21.303Z,1353.00
2024-04-18T03:07:21.338Z,1351.00
2024-04-18T03:08:21.442Z,1356.00
2024-04-18T03:09:21.538Z,1350.00
2024-04-18T03:10:21.511Z,1357.00
2024-04-18T03:11:21.666Z,1357.00
2024-04-18T03:12:21.699Z,1351.00
2024-04-18T03:13:21.754Z,1359.00
2024-04-18T03:14:21.844Z,1351.00
2024-04-18T03:15:21.910Z,1343.00
2024-04-18T03:16:21.887Z,1352.00
2024-04-18T03:17:22.032Z,1356.00
2024-04-18T03:18:22.120Z,1349.00
2024-04-18T03:19:22.122Z,1358.00
2024-04-18T03:20:22.162Z,1356.00
2024-04-18T03:21:22.252Z,1352.00
2024-04-18T03:22:22.308Z,1350.00
2024-04-18T03:23:22.374Z,1349.00
2024-04-18T03:24:22.483Z,1351.00
2024-04-18T03:25:22.479Z,1353.00
2024-04-18T03:26:22.660Z,1365.00
2024-04-18T03:27:22.714Z,1347.00
2024-04-18T03:28:22.719Z,1342.00
2024-04-18T03:29:22.787Z,1344.00
2024-04-18T03:30:22.844Z,1336.00
2024-04-18T03:31:22.883Z,1342.00
2024-04-18T03:32:23.033Z,1349.00
2024-04-18T03:33:23.114Z,1353.00
2024-04-18T03:34:23.075Z,1340.00
2024-04-18T03:35:23.159Z,1345.00
2024-04-18T03:36:23.297Z,1347.00
2024-04-18T03:37:23.263Z,1350.00
2024-04-18T03:38:23.395Z,1360.00
2024-04-18T03:39:23.437Z,1356.00
2024-04-18T03:40:23.514Z,1344.00
2024-04-18T03:41:23.511Z,1352.00
2024-04-18T03:42:23.684Z,1347.00
2024-04-18T03:43:23.657Z,1347.00
2024-04-18T03:44:23.730Z,1336.00
2024-04-18T03:45:23.951Z,1349.00
2024-04-18T03:46:23.832Z,1354.00
2024-04-18T03:47:23.965Z,1343.00
2024-04-18T03:48:24.060Z,1351.00
2024-04-18T03:49:24.055Z,1338.00
2024-04-18T03:50:24.171Z,1359.00
2024-04-18T03:51:24.303Z,1342.00
2024-04-18T03:52:24.270Z,1350.00
2024-04-18T03:53:24.405Z,1345.00
2024-04-18T03:54:24.416Z,1341.00
2024-04-18T03:55:24.540Z,1342.00
2024-04-18T03:56:24.530Z,1343.00
2024-04-18T03:57:24.588Z,1347.00
2024-04-18T03:58:24.644Z,1348.00
2024-04-18T03:59:24.718Z,1350.00
2024-04-18T04:00:24.846Z,1344.00
2024-04-18T04:01:32.033Z,600.00
2024-04-18T04:02:31.993Z,600.00
2024-04-18T04:03:31.996Z,600.00
2024-04-18T04:04:32.013Z,600.00
2024-04-18T04:05:31.919Z,600.00
2024-04-18T04:06:33.611Z,600.00
2024-04-18T04:07:31.944Z,600.00
2024-04-18T04:08:31.954Z,595.00
2024-04-18T04:09:31.959Z,587.00
2024-04-18T04:10:31.973Z,577.00
2024-04-18T04:11:32.000Z,574.00
2024-04-18T04:12:31.987Z,598.00
2024-04-18T04:13:31.950Z,603.00
2024-04-18T04:14:32.121Z,600.00
2024-04-18T04:15:32.029Z,600.00
2024-04-18T04:16:31.925Z,601.00
2024-04-18T04:17:31.977Z,599.00
2024-04-18T04:18:31.998Z,600.00
2024-04-18T04:19:32.142Z,601.00
2024-04-18T04:20:31.928Z,600.00
2024-04-18T04:21:31.998Z,601.00
2024-04-18T04:22:33.565Z,603.00
2024-04-18T04:23:31.934Z,603.00
2024-04-18T04:24:31.971Z,600.00
2024-04-18T04:25:31.967Z,602.00
2024-04-18T04:26:31.956Z,604.00
2024-04-18T04:27:31.998Z,601.00
2024-04-18T04:28:31.968Z,603.00
2024-04-18T04:29:32.024Z,600.00
2024-04-18T04:30:39.189Z,600.00
2024-04-18T04:31:46.296Z,600.00
2024-04-18T04:32:46.327Z,600.00
2024-04-18T04:33:46.326Z,600.00
2024-04-18T04:34:46.292Z,600.00
2024-04-18T04:35:46.272Z,600.00
2024-04-18T04:36:46.276Z,600.00
2024-04-18T04:37:46.271Z,598.00
2024-04-18T04:38:46.311Z,606.00
2024-04-18T04:39:46.347Z,605.00
2024-04-18T04:40:46.329Z,604.00
2024-04-18T04:41:46.331Z,600.00
2024-04-18T04:42:46.380Z,601.00
2024-04-18T04:43:46.306Z,601.00
2024-04-18T04:44:46.319Z,603.00
2024-04-18T04:45:46.383Z,601.00
2024-04-18T04:46:46.264Z,600.00
2024-04-18T04:47:46.326Z,602.00
2024-04-18T04:48:46.318Z,605.00
2024-04-18T04:49:46.334Z,604.00
2024-04-18T04:50:46.308Z,600.00
2024-04-18T04:51:46.367Z,606.00
2024-04-18T04:52:46.281Z,605.00
2024-04-18T04:53:46.315Z,606.00
2024-04-18T04:54:46.414Z,606.00
2024-04-18T04:55:46.293Z,606.00
2024-04-18T04:56:46.352Z,606.00
2024-04-18T04:57:46.334Z,607.00
2024-04-18T04:58:46.307Z,611.00
2024-04-18T04:59:46.285Z,609.00
2024-04-18T05:00:46.314Z,612.00
2024-04-18T05:01:46.351Z,613.00
2024-04-18T05:02:48.791Z,608.00
2024-04-18T05:03:46.370Z,609.00
2024-04-18T05:04:46.362Z,609.00
2024-04-18T05:05:46.304Z,610.00
2024-04-18T05:06:46.327Z,610.00
2024-04-18T05:07:46.318Z,613.00
2024-04-18T05:08:46.311Z,616.00
2024-04-18T05:09:46.352Z,615.00
2024-04-18T05:10:46.375Z,617.00
2024-04-18T05:11:46.309Z,616.00
2024-04-18T05:12:46.382Z,618.00
2024-04-18T05:13:46.344Z,617.00
2024-04-18T05:14:46.306Z,618.00
2024-04-18T05:15:46.348Z,620.00
2024-04-18T05:16:46.383Z,617.00
2024-04-18T05:17:46.345Z,621.00
2024-04-18T05:18:46.323Z,620.00
2024-04-18T05:19:46.362Z,616.00
2024-04-18T05:20:46.345Z,618.00
2024-04-18T05:21:46.411Z,627.00
2024-04-18T05:22:46.399Z,620.00
2024-04-18T05:23:46.356Z,622.00
2024-04-18T05:24:46.338Z,621.00
2024-04-18T05:25:46.433Z,622.00
2024-04-18T05:26:46.344Z,621.00
2024-04-18T05:27:46.651Z,623.00
2024-04-18T05:28:46.340Z,621.00
2024-04-18T05:29:46.356Z,621.00
2024-04-18T05:30:46.395Z,621.00
2024-04-18T05:31:46.368Z,623.00
2024-04-18T05:32:46.597Z,625.00
2024-04-18T05:33:46.460Z,624.00
2024-04-18T05:34:46.340Z,623.00
2024-04-18T05:35:46.401Z,619.00
2024-04-18T05:36:46.358Z,614.00
2024-04-18T05:37:46.373Z,612.00
2024-04-18T05:38:46.415Z,607.00
2024-04-18T05:39:46.430Z,600.00
2024-04-18T05:40:46.377Z,600.00
2024-04-18T05:41:46.348Z,604.00
2024-04-18T05:42:46.509Z,609.00
2024-04-18T05:43:46.358Z,607.00
2024-04-18T05:44:46.393Z,604.00
2024-04-18T05:45:46.375Z,608.00
2024-04-18T05:46:46.411Z,607.00
2024-04-18T05:47:46.413Z,603.00
2024-04-18T05:48:46.445Z,602.00
2024-04-18T05:49:46.402Z,603.00
2024-04-18T05:50:46.374Z,602.00
2024-04-18T05:51:46.386Z,611.00
2024-04-18T05:52:46.383Z,613.00
2024-04-18T05:53:46.487Z,620.00
2024-04-18T05:54:46.403Z,620.00
2024-04-18T05:55:46.532Z,632.00
2024-04-18T05:56:46.525Z,634.00
2024-04-18T05:57:46.619Z,640.00
2024-04-18T05:58:46.413Z,642.00
2024-04-18T05:59:46.378Z,651.00
2024-04-18T06:00:46.457Z,655.00
2024-04-18T06:01:46.480Z,657.00
2024-04-18T06:02:46.441Z,677.00
2024-04-18T06:03:46.439Z,679.00
2024-04-18T06:04:46.484Z,682.00
2024-04-18T06:05:46.421Z,712.00
2024-04-18T06:06:46.464Z,723.00
2024-04-18T06:07:46.856Z,724.00
2024-04-18T06:08:46.415Z,753.00
2024-04-18T06:09:46.440Z,763.00
2024-04-18T06:10:46.397Z,786.00
2024-04-18T06:11:46.418Z,801.00
2024-04-18T06:12:46.448Z,810.00
2024-04-18T06:13:46.454Z,820.00
2024-04-18T06:14:46.416Z,831.00
2024-04-18T06:15:46.436Z,846.00
2024-04-18T06:16:46.695Z,860.00
2024-04-18T06:17:46.526Z,861.00
2024-04-18T06:18:46.718Z,880.00
2024-04-18T06:19:46.493Z,906.00
2024-04-18T06:20:46.615Z,930.00
2024-04-18T06:21:46.755Z,939.00
2024-04-18T06:22:46.564Z,953.00
2024-04-18T06:23:46.605Z,960.00
2024-04-18T06:24:48.823Z,959.00
2024-04-18T06:25:46.745Z,967.00
2024-04-18T06:26:46.695Z,962.00
2024-04-18T06:27:46.794Z,972.00
2024-04-18T06:28:47.062Z,978.00
2024-04-18T06:29:46.738Z,979.00
2024-04-18T06:30:46.879Z,992.00
2024-04-18T06:31:46.994Z,999.00
2024-04-18T06:32:47.048Z,1015.00
2024-04-18T06:33:46.902Z,1007.00
2024-04-18T06:34:46.876Z,1022.00
2024-04-18T06:35:46.982Z,1020.00
2024-04-18T06:36:47.026Z,1025.00
2024-04-18T06:37:47.029Z,1030.00
2024-04-18T06:38:47.153Z,1029.00
2024-04-18T06:39:47.352Z,1045.00
2024-04-18T06:40:47.238Z,1046.00
2024-04-18T06:41:47.312Z,1038.00
2024-04-18T06:42:47.391Z,1059.00
2024-04-18T06:43:47.387Z,1063.00
2024-04-18T06:44:48.367Z,1045.00
2024-04-18T06:45:47.400Z,1031.00
2024-04-18T06:46:53.224Z,1013.00
2024-04-18T06:47:48.667Z,1012.00
2024-04-18T06:48:47.555Z,981.00
2024-04-18T06:49:47.418Z,946.00
2024-04-18T06:50:47.469Z,926.00
2024-04-18T06:51:47.418Z,901.00
2024-04-18T06:52:47.433Z,855.00
2024-04-18T06:53:47.407Z,835.00
2024-04-18T06:54:47.487Z,808.00
2024-04-18T06:55:47.396Z,801.00
2024-04-18T06:56:47.470Z,784.00
2024-04-18T06:57:47.491Z,760.00
2024-04-18T06:58:47.425Z,761.00
2024-04-18T06:59:47.425Z,734.00
2024-04-18T07:00:48.281Z,718.00
2024-04-18T07:01:47.539Z,709.00
2024-04-18T07:02:47.486Z,690.00
2024-04-18T07:03:47.695Z,663.00
2024-04-18T07:04:47.850Z,650.00
2024-04-18T07:05:47.674Z,635.00
2024-04-18T07:06:47.820Z,615.00
2024-04-18T07:07:47.846Z,601.00
2024-04-18T07:08:47.846Z,600.00
2024-04-18T07:09:49.857Z,600.00
2024-04-18T07:10:48.030Z,600.00
2024-04-18T07:11:48.038Z,600.00
2024-04-18T07:12:48.126Z,600.00
2024-04-18T07:13:48.137Z,600.00
2024-04-18T07:14:48.166Z,601.00
2024-04-18T07:15:48.242Z,600.00
2024-04-18T07:16:48.594Z,601.00
2024-04-18T07:17:49.191Z,602.00
2024-04-18T07:18:48.515Z,600.00
2024-04-18T07:19:48.452Z,604.00
2024-04-18T07:20:48.405Z,608.00
2024-04-18T07:21:48.559Z,616.00
2024-04-18T07:22:48.505Z,612.00
2024-04-18T07:23:48.480Z,603.00
2024-04-18T07:24:48.518Z,600.00
2024-04-18T07:25:48.578Z,600.00
2024-04-18T07:26:48.764Z,600.00
2024-04-18T07:27:48.722Z,600.00
2024-04-18T07:28:48.816Z,600.00
2024-04-18T07:29:48.719Z,600.00
2024-04-18T07:30:48.869Z,600.00
2024-04-18T07:31:48.843Z,608.00
2024-04-18T07:32:48.965Z,608.00
2024-04-18T07:33:48.919Z,617.00
2024-04-18T07:34:48.882Z,612.00
2024-04-18T07:35:48.871Z,602.00
2024-04-18T07:36:49.667Z,603.00
2024-04-18T07:37:51.780Z,602.00
2024-04-18T07:38:49.429Z,606.00
2024-04-18T07:39:48.940Z,607.00
2024-04-18T07:40:48.850Z,613.00
2024-04-18T07:41:48.856Z,614.00
2024-04-18T07:42:48.952Z,621.00
2024-04-18T07:43:48.910Z,628.00
2024-04-18T07:44:48.894Z,640.00
2024-04-18T07:45:48.912Z,646.00
2024-04-18T07:46:48.920Z,650.00
2024-04-18T07:47:49.008Z,651.00
2024-04-18T07:48:49.014Z,657.00
2024-04-18T07:49:49.630Z,664.00
2024-04-18T07:50:48.900Z,666.00
2024-04-18T07:51:49.810Z,674.00
2024-04-18T07:52:56.854Z,677.00
2024-04-18T07:53:50.017Z,677.00
2024-04-18T07:54:48.982Z,677.00
2024-04-18T07:55:48.881Z,680.00
2024-04-18T07:56:49.299Z,688.00
2024-04-18T07:57:49.459Z,699.00
2024-04-18T07:58:49.657Z,698.00
2024-04-18T07:59:49.769Z,709.00
2024-04-18T08:00:50.123Z,708.00
2024-04-18T08:01:50.435Z,714.00
2024-04-18T08:02:50.801Z,708.00
2024-04-18T08:04:02.413Z,715.00
2024-04-18T08:04:55.208Z,716.00
2024-04-18T08:05:51.766Z,716.00
2024-04-18T08:06:51.075Z,716.00
2024-04-18T08:07:51.342Z,716.00
2024-04-18T08:08:51.472Z,716.00
2024-04-18T08:09:52.696Z,716.00
2024-04-18T08:12:53.211Z,717.00
2024-04-18T08:13:52.843Z,717.00
2024-04-18T08:14:53.342Z,717.00
2024-04-18T08:16:48.960Z,718.00
2024-04-18T08:17:49.005Z,728.00
2024-04-18T08:18:48.985Z,743.00
2024-04-18T08:19:48.987Z,766.00
2024-04-18T08:20:48.984Z,789.00
2024-04-18T08:21:48.960Z,800.00
2024-04-18T08:22:48.979Z,839.00
2024-04-18T08:23:48.979Z,872.00
2024-04-18T08:24:48.988Z,910.00
2024-04-18T08:25:49.138Z,937.00
2024-04-18T08:26:48.949Z,940.00
2024-04-18T08:27:48.984Z,942.00
2024-04-18T08:28:49.065Z,937.00
2024-04-18T08:29:48.958Z,941.00
2024-04-18T08:30:48.922Z,935.00
2024-04-18T08:31:48.970Z,936.00
2024-04-18T08:32:49.025Z,928.00
2024-04-18T08:33:57.847Z,901.00
2024-04-18T08:34:50.044Z,897.00
2024-04-18T08:35:48.962Z,857.00
2024-04-18T08:36:48.978Z,817.00
2024-04-18T08:37:48.974Z,788.00
2024-04-18T08:38:48.986Z,767.00
2024-04-18T08:39:49.146Z,732.00
2024-04-18T08:40:48.961Z,683.00
2024-04-18T08:41:48.972Z,681.00
2024-04-18T08:42:49.053Z,657.00
2024-04-18T08:43:52.222Z,642.00
2024-04-18T08:44:48.953Z,642.00
2024-04-18T08:45:48.956Z,632.00
2024-04-18T08:46:48.986Z,614.00
2024-04-18T08:47:49.201Z,600.00
2024-04-18T08:48:49.116Z,600.00
2024-04-18T08:49:48.999Z,601.00
2024-04-18T08:50:49.019Z,601.00
2024-04-18T08:51:49.051Z,600.00
2024-04-18T08:52:49.007Z,603.00
2024-04-18T08:53:49.014Z,608.00
2024-04-18T08:54:49.045Z,602.00
2024-04-18T08:55:48.968Z,605.00
2024-04-18T08:56:49.018Z,605.00
2024-04-18T08:57:49.030Z,612.00
2024-04-18T08:58:49.020Z,610.00
2024-04-18T08:59:49.028Z,612.00
2024-04-18T09:00:49.052Z,613.00
2024-04-18T09:01:49.010Z,620.00
2024-04-18T09:02:49.124Z,622.00
2024-04-18T09:03:49.038Z,620.00
2024-04-18T09:04:49.032Z,623.00
2024-04-18T09:05:49.010Z,629.00
2024-04-18T09:06:49.008Z,641.00
2024-04-18T09:07:49.009Z,643.00
2024-04-18T09:08:49.012Z,642.00
2024-04-18T09:09:49.023Z,640.00
2024-04-18T09:10:49.140Z,629.00
2024-04-18T09:11:49.019Z,633.00
2024-04-18T09:12:49.003Z,634.00
2024-04-18T09:13:49.057Z,626.00
2024-04-18T09:14:49.057Z,620.00
2024-04-18T09:15:49.058Z,614.00
2024-04-18T09:16:49.050Z,605.00
2024-04-18T09:17:49.080Z,600.00
2024-04-18T09:18:49.130Z,604.00
2024-04-18T09:19:49.059Z,600.00
2024-04-18T09:20:49.040Z,600.00
2024-04-18T09:21:49.069Z,601.00
2024-04-18T09:22:49.044Z,600.00
2024-04-18T09:23:49.026Z,600.00
2024-04-18T09:24:49.019Z,601.00
2024-04-18T09:25:49.051Z,604.00
2024-04-18T09:26:49.036Z,608.00
2024-04-18T09:27:50.026Z,608.00
2024-04-18T09:28:49.033Z,609.00
2024-04-18T09:29:49.071Z,610.00
2024-04-18T09:30:49.027Z,611.00
2024-04-18T09:31:49.048Z,602.00
2024-04-18T09:32:49.140Z,609.00
2024-04-18T09:33:49.193Z,611.00
2024-04-18T09:34:49.097Z,623.00
2024-04-18T09:35:49.031Z,620.00
2024-04-18T09:36:49.147Z,616.00
2024-04-18T09:37:53.535Z,626.00
2024-04-18T09:38:50.043Z,626.00
2024-04-18T09:39:49.106Z,628.00
2024-04-18T09:40:49.020Z,633.00
2024-04-18T09:41:49.108Z,644.00
2024-04-18T09:42:49.046Z,659.00
2024-04-18T09:43:49.066Z,659.00
2024-04-18T09:44:49.068Z,671.00
2024-04-18T09:45:49.055Z,655.00
2024-04-18T09:46:50.603Z,652.00
2024-04-18T09:47:49.161Z,659.00
2024-04-18T09:48:49.155Z,658.00
2024-04-18T09:49:51.029Z,661.00
2024-04-18T09:50:49.056Z,664.00
2024-04-18T09:51:49.034Z,663.00
2024-04-18T09:52:49.149Z,651.00
2024-04-18T09:53:49.075Z,647.00
2024-04-18T09:54:49.059Z,650.00
2024-04-18T09:55:49.096Z,658.00
2024-04-18T09:56:49.047Z,651.00
2024-04-18T09:57:49.086Z,649.00
2024-04-18T09:58:49.067Z,661.00
2024-04-18T09:59:49.070Z,667.00
2024-04-18T10:00:49.080Z,672.00
2024-04-18T10:01:49.089Z,698.00
2024-04-18T10:02:49.634Z,665.00
2024-04-18T10:03:49.284Z,694.00
2024-04-18T10:04:49.204Z,706.00
2024-04-18T10:05:49.080Z,720.00
2024-04-18T10:06:49.485Z,722.00
2024-04-18T10:07:49.122Z,713.00
2024-04-18T10:08:49.121Z,688.00
2024-04-18T10:09:49.129Z,721.00
2024-04-18T10:10:49.591Z,724.00
2024-04-18T10:11:49.162Z,744.00
2024-04-18T10:12:50.085Z,759.00
2024-04-18T10:13:49.118Z,784.00
2024-04-18T10:14:49.633Z,814.00
2024-04-18T10:15:49.202Z,822.00
2024-04-18T10:16:49.246Z,831.00
2024-04-18T10:17:49.448Z,834.00
2024-04-18T10:18:51.599Z,863.00
2024-04-18T10:19:49.627Z,863.00
2024-04-18T10:20:49.997Z,868.00
2024-04-18T10:22:01.067Z,877.00
2024-04-18T10:22:50.459Z,864.00
2024-04-18T10:23:49.588Z,854.00
2024-04-18T10:24:49.449Z,785.00
2024-04-18T10:25:49.510Z,725.00
2024-04-18T10:26:49.414Z,651.00
2024-04-18T10:27:49.382Z,611.00
2024-04-18T10:28:49.457Z,600.00
2024-04-18T10:29:49.680Z,600.00
2024-04-18T10:30:49.486Z,600.00
2024-04-18T10:31:49.439Z,602.00
2024-04-18T10:32:49.788Z,601.00
2024-04-18T10:33:49.632Z,604.00
2024-04-18T10:34:49.608Z,614.00
2024-04-18T10:35:50.156Z,627.00
2024-04-18T10:36:49.755Z,631.00
2024-04-18T10:37:49.855Z,622.00
2024-04-18T10:38:49.930Z,626.00
2024-04-18T10:39:49.963Z,634.00
2024-04-18T10:40:50.029Z,637.00
2024-04-18T10:41:50.103Z,628.00
2024-04-18T10:42:50.144Z,622.00
2024-04-18T10:43:50.236Z,613.00
2024-04-18T10:44:50.304Z,607.00
2024-04-18T10:45:50.333Z,608.00
2024-04-18T10:46:50.410Z,603.00
2024-04-18T10:47:50.583Z,600.00
2024-04-18T10:48:50.598Z,600.00
2024-04-18T10:49:50.563Z,608.00
2024-04-18T10:50:50.605Z,608.00
2024-04-18T10:51:50.722Z,603.00
2024-04-18T10:52:51.123Z,604.00
2024-04-18T10:53:50.753Z,607.00
2024-04-18T10:54:50.835Z,608.00
2024-04-18T10:55:50.874Z,603.00
2024-04-18T10:56:50.924Z,605.00
2024-04-18T10:57:51.034Z,607.00
2024-04-18T10:58:51.014Z,605.00
2024-04-18T10:59:51.099Z,601.00
2024-04-18T11:00:51.134Z,607.00
2024-04-18T11:01:51.202Z,601.00
2024-04-18T11:02:51.659Z,601.00
2024-04-18T11:03:51.550Z,602.00
2024-04-18T11:04:51.311Z,606.00
2024-04-18T11:05:51.369Z,607.00
2024-04-18T11:06:51.402Z,603.00
2024-04-18T11:07:51.489Z,602.00
2024-04-18T11:08:51.509Z,608.00
2024-04-18T11:09:51.582Z,610.00
2024-04-18T11:10:51.646Z,620.00
2024-04-18T11:11:51.708Z,634.00
2024-04-18T11:12:51.746Z,643.00
2024-04-18T11:13:52.164Z,658.00
2024-04-18T11:14:51.823Z,679.00
2024-04-18T11:15:51.873Z,704.00
2024-04-18T11:16:52.169Z,733.00
2024-04-18T11:17:52.097Z,762.00
2024-04-18T11:18:52.173Z,793.00
2024-04-18T11:19:52.070Z,817.00
2024-04-18T11:20:52.144Z,852.00
2024-04-18T11:21:52.651Z,858.00
2024-04-18T11:22:57.279Z,871.00
2024-04-18T11:23:53.266Z,872.00
2024-04-18T11:24:52.372Z,875.00
2024-04-18T11:25:52.272Z,879.00
2024-04-18T11:26:52.253Z,886.00
2024-04-18T11:27:52.254Z,906.00
2024-04-18T11:28:52.278Z,912.00
2024-04-18T11:29:52.240Z,859.00
2024-04-18T11:30:52.236Z,786.00
2024-04-18T11:31:52.261Z,744.00
2024-04-18T11:32:52.359Z,711.00
2024-04-18T11:33:52.446Z,707.00
2024-04-18T11:35:00.089Z,670.00
2024-04-18T11:35:53.415Z,656.00
2024-04-18T11:36:52.423Z,642.00
2024-04-18T11:37:52.417Z,627.00
2024-04-18T11:38:52.395Z,606.00
2024-04-18T11:39:52.411Z,588.00
2024-04-18T11:40:52.488Z,600.00
2024-04-18T11:41:52.436Z,600.00
2024-04-18T11:42:52.457Z,600.00
2024-04-18T11:43:52.496Z,601.00
2024-04-18T11:44:52.558Z,600.00
2024-04-18T11:45:52.612Z,600.00
2024-04-18T11:46:52.693Z,600.00
2024-04-18T11:47:52.815Z,606.00
2024-04-18T11:48:52.920Z,601.00
2024-04-18T11:49:52.908Z,597.00
2024-04-18T11:50:52.971Z,601.00
2024-04-18T11:51:53.036Z,601.00
2024-04-18T11:52:53.114Z,602.00
2024-04-18T11:53:53.156Z,600.00
2024-04-18T11:54:53.232Z,602.00
2024-04-18T11:55:54.804Z,606.00
2024-04-18T11:56:53.251Z,607.00
2024-04-18T11:57:53.299Z,611.00
2024-04-18T11:58:53.568Z,622.00
2024-04-18T11:59:53.300Z,636.00
2024-04-18T12:00:53.332Z,647.00
2024-04-18T12:01:53.286Z,654.00
2024-04-18T12:02:53.299Z,666.00
2024-04-18T12:03:53.394Z,713.00
2024-04-18T12:04:53.374Z,726.00
2024-04-18T12:05:53.295Z,790.00
2024-04-18T12:06:54.045Z,880.00
2024-04-18T12:07:53.273Z,989.00
2024-04-18T12:08:55.096Z,1059.00
2024-04-18T12:09:53.260Z,1047.00
2024-04-18T12:10:53.325Z,1031.00
2024-04-18T12:11:53.408Z,995.00
2024-04-18T12:12:53.377Z,957.00
2024-04-18T12:13:53.447Z,920.00
2024-04-18T12:14:53.462Z,858.00
2024-04-18T12:15:53.611Z,821.00
2024-04-18T12:16:54.431Z,776.00
2024-04-18T12:17:53.481Z,762.00
2024-04-18T12:18:53.530Z,775.00
2024-04-18T12:19:53.490Z,829.00
2024-04-18T12:20:53.475Z,862.00
2024-04-18T12:21:53.731Z,883.00
2024-04-18T12:22:53.573Z,895.00
2024-04-18T12:23:53.600Z,934.00